createdAt,value
2023-05-14T00:01:19.546Z,99980.25
2023-05-14T00:03:46.117Z,99976.13
2023-05-14T00:06:12.656Z,99980.66
2023-05-14T00:08:39.094Z,99978.78
2023-05-14T00:11:05.820Z,99976.44
2023-05-14T00:13:32.337Z,99971.13
2023-05-14T00:15:58.851Z,99969.56
2023-05-14T00:18:25.434Z,99965.72
2023-05-14T00:20:54.634Z,99964.06
2023-05-14T00:23:22.223Z,99961.41
2023-05-14T00:25:48.702Z,99963.19
2023-05-14T00:28:15.316Z,99955.78
2023-05-14T00:30:42.010Z,99966.91
2023-05-14T00:33:08.829Z,99965.31
2023-05-14T00:35:35.737Z,99951.97
2023-05-14T00:38:02.799Z,99945.22
2023-05-14T00:40:29.373Z,99946.78
2023-05-14T00:42:56.240Z,99941.72
2023-05-14T00:45:23.032Z,99937.38
2023-05-14T00:47:50.084Z,99937.50
2023-05-14T00:50:16.667Z,99937.69
2023-05-14T00:52:43.219Z,99939.38
2023-05-14T00:55:12.884Z,99941.19
2023-05-14T00:57:39.476Z,99930.69
2023-05-14T01:00:06.648Z,99929.63
2023-05-14T01:02:33.568Z,99929.63
2023-05-14T01:05:00.597Z,99923.50
2023-05-14T01:07:32.163Z,99937.03
2023-05-14T01:10:05.350Z,99935.38
2023-05-14T01:13:06.273Z,99932.50
2023-05-14T01:15:34.219Z,99923.47
2023-05-14T01:18:11.469Z,99919.75
2023-05-14T01:20:37.932Z,99924.00
2023-05-14T01:23:04.452Z,99929.09
2023-05-14T01:25:31.486Z,99924.63
2023-05-14T01:28:06.854Z,99925.97
2023-05-14T01:30:36.135Z,99928.13
2023-05-14T01:33:03.782Z,99932.16
2023-05-14T01:35:30.708Z,99919.34
2023-05-14T01:37:59.855Z,99921.22
2023-05-14T01:40:27.128Z,99927.41
2023-05-14T01:42:54.526Z,99915.53
2023-05-14T01:45:21.906Z,99913.94
2023-05-14T01:47:48.581Z,99919.47
2023-05-14T01:50:15.852Z,99912.78
2023-05-14T01:52:42.377Z,99918.44
2023-05-14T01:55:09.292Z,99914.41
2023-05-14T01:57:36.091Z,99917.28
2023-05-14T02:00:04.117Z,99923.63
2023-05-14T02:02:40.641Z,99909.13
2023-05-14T02:05:11.049Z,99912.50
2023-05-14T02:07:37.676Z,99914.09
2023-05-14T02:10:04.831Z,99907.53
2023-05-14T02:12:31.333Z,99899.59
2023-05-14T02:14:57.812Z,99902.22
2023-05-14T02:17:26.870Z,99904.13
2023-05-14T02:19:54.200Z,99904.13
2023-05-14T02:22:20.715Z,99903.06
2023-05-14T02:24:47.159Z,99905.63
2023-05-14T02:27:13.687Z,99905.22
2023-05-14T02:29:40.193Z,99893.88
2023-05-14T02:32:07.122Z,99896.22
2023-05-14T02:34:34.472Z,99894.41
2023-05-14T02:37:01.181Z,99896.09
2023-05-14T02:39:27.859Z,99901.38
2023-05-14T02:41:54.709Z,99892.06
2023-05-14T02:44:21.248Z,99898.00
2023-05-14T02:46:47.833Z,99896.41
2023-05-14T02:49:14.529Z,99901.59
2023-05-14T02:51:40.990Z,99899.06
2023-05-14T02:54:07.680Z,99892.81
2023-05-14T02:56:34.164Z,99901.50
2023-05-14T02:59:00.644Z,99897.69
2023-05-14T03:01:28.021Z,99886.97
2023-05-14T03:03:55.364Z,99889.31
2023-05-14T03:06:21.880Z,99888.44
2023-05-14T03:08:48.365Z,99885.91
2023-05-14T03:11:14.871Z,99886.66
2023-05-14T03:13:41.458Z,99889.50
2023-05-14T03:16:08.164Z,99881.69
2023-05-14T03:18:36.468Z,99884.44
2023-05-14T03:21:03.925Z,99886.03
2023-05-14T03:23:31.947Z,99879.13
2023-05-14T03:25:58.802Z,99888.03
2023-05-14T03:28:25.866Z,99889.50
2023-05-14T03:30:52.573Z,99884.56
2023-05-14T03:33:19.371Z,99890.69
2023-05-14T03:35:46.108Z,99890.78
2023-05-14T03:38:12.670Z,99891.09
2023-05-14T03:40:39.161Z,99887.81
2023-05-14T03:43:05.895Z,99882.00
2023-05-14T03:45:33.186Z,99889.13
2023-05-14T03:47:59.852Z,99888.47
2023-05-14T03:50:26.660Z,99887.72
2023-05-14T03:52:53.570Z,99884.47
2023-05-14T03:55:20.328Z,99883.81
2023-05-14T03:57:48.120Z,99881.19
2023-05-14T04:00:15.382Z,99880.44
2023-05-14T04:02:44.884Z,99888.16
2023-05-14T04:05:11.482Z,99885.72
2023-05-14T04:07:38.090Z,99880.44
2023-05-14T04:10:04.968Z,99889.41
2023-05-14T04:12:34.090Z,99892.03
2023-05-14T04:15:01.090Z,99894.81
2023-05-14T04:17:27.671Z,99892.38
2023-05-14T04:19:54.173Z,99898.63
2023-05-14T04:22:20.642Z,99895.03
2023-05-14T04:24:47.232Z,99906.13
2023-05-14T04:27:21.041Z,99908.47
2023-05-14T04:29:48.318Z,99904.13
2023-05-14T04:32:14.843Z,99896.31
2023-05-14T04:34:41.287Z,99890.06
2023-05-14T04:37:08.026Z,99890.72
2023-05-14T04:39:34.555Z,99887.13
2023-05-14T04:42:01.138Z,99881.81
2023-05-14T04:44:27.682Z,99896.53
2023-05-14T04:46:54.183Z,99893.88
2023-05-14T04:49:21.041Z,99898.31
2023-05-14T04:51:48.222Z,99898.22
2023-05-14T04:54:14.834Z,99893.88
2023-05-14T04:56:41.313Z,99898.00
2023-05-14T04:59:07.783Z,99897.06
2023-05-14T05:01:34.369Z,99893.47
2023-05-14T05:04:00.966Z,99904.56
2023-05-14T05:06:27.562Z,99905.22
2023-05-14T05:08:54.072Z,99893.88
2023-05-14T05:11:21.299Z,99906.78
2023-05-14T05:13:47.738Z,99903.28
2023-05-14T05:16:14.411Z,99905.63
2023-05-14T05:18:41.211Z,99912.38
2023-05-14T05:21:07.832Z,99901.38
2023-05-14T05:23:34.395Z,99910.88
2023-05-14T05:26:01.135Z,99905.53
2023-05-14T05:28:27.707Z,99910.78
2023-05-14T05:30:54.435Z,99910.63
2023-05-14T05:33:21.304Z,99917.38
2023-05-14T05:35:48.951Z,99919.09
2023-05-14T05:38:18.083Z,99920.03
2023-05-14T05:40:44.924Z,99916.09
2023-05-14T05:43:13.951Z,99918.81
2023-05-14T05:45:41.702Z,99909.81
2023-05-14T05:48:08.503Z,99912.50
2023-05-14T05:50:35.591Z,99914.19
2023-05-14T05:53:02.292Z,99917.47
2023-05-14T05:55:29.615Z,99907.47
2023-05-14T05:57:56.452Z,99908.66
2023-05-14T06:00:23.919Z,99918.31
2023-05-14T06:02:52.208Z,99924.84
2023-05-14T06:05:19.502Z,99915.31
2023-05-14T06:07:45.982Z,99917.22
2023-05-14T06:10:12.505Z,99913.13
2023-05-14T06:12:38.995Z,99910.31
2023-05-14T06:15:06.352Z,99919.75
2023-05-14T06:17:32.889Z,99917.44
2023-05-14T06:19:59.460Z,99921.78
2023-05-14T06:22:25.895Z,99924.22
2023-05-14T06:24:52.370Z,99917.34
2023-05-14T06:27:18.958Z,99916.88
2023-05-14T06:29:45.453Z,99915.66
2023-05-14T06:32:15.275Z,99913.81
2023-05-14T06:34:42.546Z,99911.66
2023-05-14T06:37:09.912Z,99908.91
2023-05-14T06:39:37.392Z,99896.94
2023-05-14T06:42:04.394Z,99915.19
2023-05-14T06:44:31.216Z,99914.56
2023-05-14T06:46:57.697Z,99915.31
2023-05-14T06:49:24.264Z,99912.25
2023-05-14T06:51:50.782Z,99908.50
2023-05-14T06:54:17.405Z,99913.81
2023-05-14T06:56:44.117Z,99900.41
2023-05-14T06:59:10.714Z,99904.91
2023-05-14T07:01:37.338Z,99897.53
2023-05-14T07:04:04.029Z,99896.31
2023-05-14T07:06:30.767Z,99899.81
2023-05-14T07:08:57.218Z,99897.16
2023-05-14T07:11:23.688Z,99900.53
2023-05-14T07:13:50.285Z,99899.31
2023-05-14T07:16:17.850Z,99897.97
2023-05-14T07:18:45.378Z,99890.69
2023-05-14T07:21:12.142Z,99894.81
2023-05-14T07:23:38.655Z,99893.59
2023-05-14T07:26:07.550Z,99884.44
2023-05-14T07:28:34.304Z,99884.75
2023-05-14T07:31:00.946Z,99879.56
2023-05-14T07:33:27.530Z,99880.78
2023-05-14T07:35:54.172Z,99892.47
2023-05-14T07:38:20.876Z,99890.28
2023-05-14T07:40:47.307Z,99879.38
2023-05-14T07:43:14.297Z,99880.56
2023-05-14T07:45:40.781Z,99870.22
2023-05-14T07:48:07.370Z,99872.38
2023-05-14T07:50:34.004Z,99871.88
2023-05-14T07:53:00.594Z,99873.44
2023-05-14T07:55:27.012Z,99874.84
2023-05-14T07:57:53.493Z,99867.69
2023-05-14T08:00:20.109Z,99856.66
2023-05-14T08:02:46.684Z,99872.00
2023-05-14T08:05:13.473Z,99865.69
2023-05-14T08:07:39.972Z,99870.75
2023-05-14T08:10:07.577Z,99864.44
2023-05-14T08:12:34.093Z,99864.31
2023-05-14T08:15:00.592Z,99867.75
2023-05-14T08:17:27.123Z,99873.13
2023-05-14T08:19:53.988Z,99867.41
2023-05-14T08:22:20.550Z,99862.53
2023-05-14T08:24:46.999Z,99860.16
2023-05-14T08:27:13.440Z,99862.31
2023-05-14T08:29:39.902Z,99855.34
2023-05-14T08:32:19.310Z,99857.03
2023-05-14T08:34:48.980Z,99846.50
2023-05-14T08:37:15.459Z,99848.47
2023-05-14T08:39:41.907Z,99854.81
2023-05-14T08:42:11.110Z,99847.97
2023-05-14T08:44:50.234Z,99847.56
2023-05-14T08:47:17.921Z,99850.41
2023-05-14T08:49:47.033Z,99855.34
2023-05-14T08:52:13.528Z,99851.13
2023-05-14T08:54:40.580Z,99846.91
2023-05-14T08:57:09.892Z,99841.41
2023-05-14T08:59:36.600Z,99835.09
2023-05-14T09:02:04.992Z,99838.75
2023-05-14T09:04:32.370Z,99826.84
2023-05-14T09:07:00.248Z,99838.63
2023-05-14T09:09:27.360Z,99827.25
2023-05-14T09:11:54.177Z,99825.84
2023-05-14T09:14:21.923Z,99825.69
2023-05-14T09:16:49.805Z,99824.72
2023-05-14T09:19:19.162Z,99827.22
2023-05-14T09:21:47.085Z,99826.84
2023-05-14T09:24:21.361Z,99829.63
2023-05-14T09:26:51.145Z,99822.19
2023-05-14T09:29:17.596Z,99827.50
2023-05-14T09:31:44.026Z,99825.06
2023-05-14T09:34:10.857Z,99831.31
2023-05-14T09:36:37.292Z,99828.31
2023-05-14T09:39:04.297Z,99822.22
2023-05-14T09:41:30.742Z,99820.63
2023-05-14T09:43:57.809Z,99827.34
2023-05-14T09:46:24.293Z,99829.13
2023-05-14T09:48:50.780Z,99815.84
2023-05-14T09:51:20.872Z,99808.53
2023-05-14T09:53:47.344Z,99816.22
2023-05-14T09:56:14.622Z,99814.41
2023-05-14T09:58:41.145Z,99818.06
2023-05-14T10:01:07.754Z,99810.22
2023-05-14T10:03:34.411Z,99812.97
2023-05-14T10:06:05.322Z,99804.25
2023-05-14T10:08:36.076Z,99811.03
2023-05-14T10:11:06.904Z,99810.22
2023-05-14T10:13:38.995Z,99812.28
2023-05-14T10:16:13.183Z,99815.72
2023-05-14T10:18:48.340Z,99810.97
2023-05-14T10:21:15.618Z,99806.75
2023-05-14T10:23:42.720Z,99812.19
2023-05-14T10:26:09.717Z,99817.13
2023-05-14T10:28:36.620Z,99821.31
2023-05-14T10:31:03.666Z,99808.03
2023-05-14T10:33:30.302Z,99813.38
2023-05-14T10:36:02.033Z,99813.72
2023-05-14T10:38:29.851Z,99814.69
2023-05-14T10:41:01.287Z,99804.16
2023-05-14T10:43:31.443Z,99805.44
2023-05-14T10:45:59.844Z,99807.19
2023-05-14T10:48:26.816Z,99805.69
2023-05-14T10:50:53.734Z,99805.34
2023-05-14T10:53:21.067Z,99793.19
2023-05-14T10:55:47.483Z,99799.63
2023-05-14T10:58:14.756Z,99797.28
2023-05-14T11:00:41.218Z,99792.75
2023-05-14T11:03:07.716Z,99789.78
2023-05-14T11:05:37.171Z,99792.53
2023-05-14T11:08:07.694Z,99785.16
2023-05-14T11:10:35.552Z,99791.94
2023-05-14T11:13:02.162Z,99784.63
2023-05-14T11:15:29.023Z,99787.81
2023-05-14T11:17:55.622Z,99787.00
2023-05-14T11:20:22.268Z,99788.03
2023-05-14T11:22:51.377Z,99784.06
2023-05-14T11:25:18.690Z,99782.09
2023-05-14T11:27:46.888Z,99780.75
2023-05-14T11:30:16.760Z,99777.19
2023-05-14T11:32:48.024Z,99777.53
2023-05-14T11:35:15.336Z,99783.38
2023-05-14T11:37:42.695Z,99790.34
2023-05-14T11:40:16.074Z,99775.25
2023-05-14T11:42:42.506Z,99782.19
2023-05-14T11:45:13.120Z,99774.13
2023-05-14T11:47:41.603Z,99763.56
2023-05-14T11:50:09.537Z,99773.22
2023-05-14T11:52:40.848Z,99759.59
2023-05-14T11:55:12.080Z,99769.34
2023-05-14T11:57:38.529Z,99771.03
2023-05-14T12:00:09.087Z,99762.81
2023-05-14T12:02:36.242Z,99758.25
2023-05-14T12:05:02.776Z,99756.94
2023-05-14T12:07:30.090Z,99759.94
2023-05-14T12:10:01.358Z,99760.13
2023-05-14T12:12:28.049Z,99758.97
2023-05-14T12:14:54.475Z,99756.31
2023-05-14T12:17:22.620Z,99756.03
2023-05-14T12:19:51.228Z,99751.47
2023-05-14T12:22:20.210Z,99744.25
2023-05-14T12:24:53.965Z,99747.63
2023-05-14T12:27:23.549Z,99746.56
2023-05-14T12:29:53.373Z,99742.72
2023-05-14T12:32:20.212Z,99748.16
2023-05-14T12:34:46.631Z,99744.31
2023-05-14T12:37:13.100Z,99739.69
2023-05-14T12:39:39.516Z,99725.59
2023-05-14T12:42:06.146Z,99725.47
2023-05-14T12:44:32.626Z,99727.97
2023-05-14T12:46:59.109Z,99710.81
2023-05-14T12:49:25.847Z,99712.63
2023-05-14T12:52:07.940Z,99710.16
2023-05-14T12:54:42.826Z,99703.41
2023-05-14T12:57:09.438Z,99708.41
2023-05-14T12:59:35.968Z,99701.06
2023-05-14T13:02:02.480Z,99694.56
2023-05-14T13:04:29.100Z,99691.75
2023-05-14T13:06:55.950Z,99694.66
2023-05-14T13:09:22.388Z,99688.78
2023-05-14T13:11:48.880Z,99692.66
2023-05-14T13:14:15.578Z,99688.97
2023-05-14T13:16:42.375Z,99678.38
2023-05-14T13:19:09.331Z,99682.25
2023-05-14T13:21:35.779Z,99674.84
2023-05-14T13:24:02.262Z,99673.50
2023-05-14T13:26:28.749Z,99679.19
2023-05-14T13:28:55.235Z,99678.84
2023-05-14T13:31:21.754Z,99664.91
2023-05-14T13:33:48.359Z,99671.16
2023-05-14T13:36:15.140Z,99668.63
2023-05-14T13:38:41.803Z,99661.63
2023-05-14T13:41:08.287Z,99660.91
2023-05-14T13:43:35.584Z,99650.34
2023-05-14T13:46:03.220Z,99653.34
2023-05-14T13:48:30.931Z,99642.44
2023-05-14T13:50:57.505Z,99647.94
2023-05-14T13:53:25.522Z,99645.63
2023-05-14T13:55:58.518Z,99635.56
2023-05-14T13:58:26.609Z,99637.75
2023-05-14T14:00:53.363Z,99631.00
2023-05-14T14:03:20.131Z,99635.69
2023-05-14T14:05:46.594Z,99622.25
2023-05-14T14:08:23.247Z,99627.94
2023-05-14T14:10:51.117Z,99620.69
2023-05-14T14:13:17.814Z,99620.69
2023-05-14T14:15:44.369Z,99603.88
2023-05-14T14:18:10.981Z,99595.00
2023-05-14T14:20:37.413Z,99605.09
2023-05-14T14:23:03.839Z,99592.00
2023-05-14T14:25:30.225Z,99589.94
2023-05-14T14:27:56.805Z,99589.63
2023-05-14T14:30:23.280Z,99590.34
2023-05-14T14:32:49.902Z,99585.84
2023-05-14T14:35:19.114Z,99589.72
2023-05-14T14:37:48.998Z,99583.31
2023-05-14T14:40:16.614Z,99583.31
2023-05-14T14:42:43.582Z,99572.44
2023-05-14T14:45:10.686Z,99574.63
2023-05-14T14:47:37.171Z,99570.38
2023-05-14T14:50:04.362Z,99578.50
2023-05-14T14:52:30.776Z,99575.03
2023-05-14T14:54:57.259Z,99573.69
2023-05-14T14:57:23.735Z,99563.78
2023-05-14T14:59:50.318Z,99564.22
2023-05-14T15:02:16.830Z,99567.19
2023-05-14T15:04:43.641Z,99557.78
2023-05-14T15:07:10.149Z,99561.25
2023-05-14T15:09:36.632Z,99559.13
2023-05-14T15:12:03.122Z,99568.38
2023-05-14T15:14:29.534Z,99566.88
2023-05-14T15:16:55.986Z,99562.03
2023-05-14T15:19:22.570Z,99566.09
2023-05-14T15:21:49.131Z,99562.69
2023-05-14T15:24:15.562Z,99568.47
2023-05-14T15:26:42.052Z,99568.16
2023-05-14T15:29:08.614Z,99560.31
2023-05-14T15:31:35.054Z,99552.31
2023-05-14T15:34:01.661Z,99548.13
2023-05-14T15:36:28.564Z,99557.72
2023-05-14T15:38:55.028Z,99546.03
2023-05-14T15:41:22.664Z,99547.50
2023-05-14T15:43:49.087Z,99555.50
2023-05-14T15:46:15.754Z,99539.06
2023-05-14T15:48:42.264Z,99536.56
2023-05-14T15:51:08.785Z,99532.78
2023-05-14T15:53:35.417Z,99541.38
2023-05-14T15:56:02.734Z,99544.88
2023-05-14T15:58:29.153Z,99547.56
2023-05-14T16:00:55.982Z,99546.66
2023-05-14T16:03:22.542Z,99547.03
2023-05-14T16:05:49.102Z,99540.84
2023-05-14T16:08:15.630Z,99541.72
2023-05-14T16:10:42.141Z,99542.19
2023-05-14T16:13:08.997Z,99538.97
2023-05-14T16:15:35.443Z,99531.44
2023-05-14T16:18:01.914Z,99528.31
2023-05-14T16:20:28.452Z,99516.31
2023-05-14T16:22:54.877Z,99528.28
2023-05-14T16:25:21.392Z,99522.19
2023-05-14T16:27:47.824Z,99521.44
2023-05-14T16:30:14.445Z,99526.28
2023-05-14T16:32:42.052Z,99522.22
2023-05-14T16:35:09.046Z,99517.66
2023-05-14T16:37:35.852Z,99524.63
2023-05-14T16:40:02.480Z,99523.69
2023-05-14T16:42:29.193Z,99521.38
2023-05-14T16:44:55.627Z,99515.72
2023-05-14T16:47:22.083Z,99524.06
2023-05-14T16:49:48.659Z,99528.25
2023-05-14T16:52:15.315Z,99517.63
2023-05-14T16:54:41.789Z,99521.34
2023-05-14T16:57:08.212Z,99518.56
2023-05-14T16:59:34.623Z,99519.16
2023-05-14T17:02:01.293Z,99516.63
2023-05-14T17:04:27.819Z,99512.50
2023-05-14T17:06:55.223Z,99509.16
2023-05-14T17:09:21.690Z,99522.88
2023-05-14T17:11:48.194Z,99526.47
2023-05-14T17:14:14.870Z,99530.19
2023-05-14T17:16:42.291Z,99537.38
2023-05-14T17:19:08.830Z,99530.50
2023-05-14T17:21:35.394Z,99535.22
2023-05-14T17:24:01.899Z,99530.75
2023-05-14T17:26:28.322Z,99532.03
2023-05-14T17:28:54.742Z,99530.59
2023-05-14T17:31:22.237Z,99528.31
2023-05-14T17:33:48.978Z,99528.31
2023-05-14T17:36:15.457Z,99531.63
2023-05-14T17:38:42.091Z,99534.19
2023-05-14T17:41:08.637Z,99532.81
2023-05-14T17:43:35.233Z,99540.78
2023-05-14T17:46:01.733Z,99534.25
2023-05-14T17:48:28.197Z,99539.22
2023-05-14T17:50:54.745Z,99541.97
2023-05-14T17:53:21.337Z,99550.06
2023-05-14T17:55:47.959Z,99544.56
2023-05-14T17:58:15.438Z,99540.22
2023-05-14T18:00:42.382Z,99546.44
2023-05-14T18:03:09.015Z,99542.59
2023-05-14T18:05:35.729Z,99548.34
2023-05-14T18:08:02.321Z,99556.91
2023-05-14T18:10:29.645Z,99567.38
2023-05-14T18:12:56.499Z,99581.16
2023-05-14T18:15:25.394Z,99574.19
2023-05-14T18:17:52.478Z,99574.25
2023-05-14T18:20:19.128Z,99576.25
2023-05-14T18:22:45.560Z,99574.09
2023-05-14T18:25:12.747Z,99574.25
2023-05-14T18:27:44.135Z,99570.91
2023-05-14T18:30:12.865Z,99575.06
2023-05-14T18:32:40.037Z,99581.06
2023-05-14T18:35:08.159Z,99581.69
2023-05-14T18:37:36.522Z,99580.97
2023-05-14T18:40:04.576Z,99589.00
2023-05-14T18:42:31.050Z,99588.81
2023-05-14T18:44:57.513Z,99586.41
2023-05-14T18:47:24.013Z,99589.88
2023-05-14T18:49:54.728Z,99591.50
2023-05-14T18:52:22.568Z,99601.22
2023-05-14T18:54:48.986Z,99593.53
2023-05-14T18:57:15.408Z,99600.16
2023-05-14T18:59:41.886Z,99601.75
2023-05-14T19:02:08.612Z,99604.75
2023-05-14T19:04:47.783Z,99610.56
2023-05-14T19:07:17.369Z,99605.03
2023-05-14T19:09:43.813Z,99613.81
2023-05-14T19:12:10.319Z,99611.94
2023-05-14T19:14:36.708Z,99617.75
2023-05-14T19:17:03.282Z,99615.97
2023-05-14T19:19:29.678Z,99624.91
2023-05-14T19:21:56.106Z,99621.72
2023-05-14T19:24:22.558Z,99626.34
2023-05-14T19:26:49.321Z,99630.88
2023-05-14T19:29:15.768Z,99627.50
2023-05-14T19:31:42.302Z,99626.69
2023-05-14T19:34:08.820Z,99624.44
2023-05-14T19:36:35.342Z,99626.75
2023-05-14T19:39:01.767Z,99628.88
2023-05-14T19:41:28.295Z,99628.81
2023-05-14T19:43:54.784Z,99631.78
2023-05-14T19:46:21.321Z,99635.06
2023-05-14T19:48:48.401Z,99627.81
2023-05-14T19:51:14.925Z,99628.56
2023-05-14T19:53:41.626Z,99632.81
2023-05-14T19:56:08.118Z,99623.56
2023-05-14T19:58:34.587Z,99629.75
2023-05-14T20:01:01.094Z,99626.38
2023-05-14T20:03:27.581Z,99627.81
2023-05-14T20:05:55.359Z,99635.72
2023-05-14T20:08:21.890Z,99641.94
2023-05-14T20:10:48.564Z,99632.13
2023-05-14T20:13:15.222Z,99630.34
2023-05-14T20:15:42.058Z,99628.69
2023-05-14T20:18:08.668Z,99627.72
2023-05-14T20:20:35.734Z,99623.44
2023-05-14T20:23:02.209Z,99631.84
2023-05-14T20:25:29.033Z,99626.41
2023-05-14T20:27:55.609Z,99620.94
2023-05-14T20:30:22.348Z,99620.97
2023-05-14T20:32:48.972Z,99615.78
2023-05-14T20:35:15.495Z,99619.03
2023-05-14T20:37:42.091Z,99610.19
2023-05-14T20:40:14.820Z,99607.94
2023-05-14T20:42:41.385Z,99619.13
2023-05-14T20:45:08.418Z,99612.69
2023-05-14T20:47:35.621Z,99609.72
2023-05-14T20:50:02.241Z,99611.41
2023-05-14T20:52:28.813Z,99615.59
2023-05-14T20:54:55.441Z,99615.31
2023-05-14T20:57:22.629Z,99601.69
2023-05-14T20:59:49.254Z,99609.25
2023-05-14T21:02:15.871Z,99608.16
2023-05-14T21:04:42.743Z,99605.19
2023-05-14T21:07:09.383Z,99605.59
2023-05-14T21:09:36.035Z,99593.66
2023-05-14T21:12:02.547Z,99599.25
2023-05-14T21:14:29.045Z,99596.03
2023-05-14T21:16:55.634Z,99590.28
2023-05-14T21:19:22.845Z,99591.38
2023-05-14T21:21:49.372Z,99591.81
2023-05-14T21:24:16.776Z,99591.34
2023-05-14T21:26:43.360Z,99590.06
2023-05-14T21:29:09.949Z,99594.94
2023-05-14T21:31:36.521Z,99584.25
2023-05-14T21:34:03.128Z,99595.19
2023-05-14T21:36:29.755Z,99590.25
2023-05-14T21:38:56.393Z,99588.94
2023-05-14T21:41:23.235Z,99592.44
2023-05-14T21:43:49.794Z,99591.03
2023-05-14T21:46:16.568Z,99584.28
2023-05-14T21:48:43.271Z,99589.75
2023-05-14T21:51:10.132Z,99586.50
2023-05-14T21:53:36.981Z,99586.19
2023-05-14T21:56:04.813Z,99589.47
2023-05-14T21:58:31.616Z,99586.25
2023-05-14T22:00:58.299Z,99583.00
2023-05-14T22:03:25.018Z,99572.06
2023-05-14T22:05:51.923Z,99568.81
2023-05-14T22:08:18.569Z,99569.66
2023-05-14T22:10:47.100Z,99566.16
2023-05-14T22:13:13.784Z,99564.34
2023-05-14T22:15:40.810Z,99562.78
2023-05-14T22:18:07.524Z,99568.38
2023-05-14T22:20:34.186Z,99565.13
2023-05-14T22:23:00.726Z,99559.22
2023-05-14T22:25:27.629Z,99554.44
2023-05-14T22:27:54.526Z,99549.53
2023-05-14T22:30:21.356Z,99562.06
2023-05-14T22:32:48.130Z,99555.47
2023-05-14T22:35:14.894Z,99555.47
2023-05-14T22:37:41.531Z,99545.38
2023-05-14T22:40:09.221Z,99542.84
2023-05-14T22:42:36.026Z,99544.63
2023-05-14T22:45:03.054Z,99535.13
2023-05-14T22:47:31.003Z,99543.34
2023-05-14T22:49:57.641Z,99532.97
2023-05-14T22:52:25.765Z,99533.25
2023-05-14T22:54:53.383Z,99529.72
2023-05-14T22:57:20.326Z,99522.16
2023-05-14T22:59:47.106Z,99519.50
2023-05-14T23:02:13.849Z,99526.06
2023-05-14T23:04:40.812Z,99533.28
2023-05-14T23:07:08.565Z,99529.34
2023-05-14T23:35:43.008Z,99530.22
2023-05-14T23:38:47.866Z,99533.75
